sensor_id;sensor_type;location;lat;lon;timestamp;temperature;humidity
29775;DHT22;16676;51.202;6.774;2022-09-17T00:03:14;20.80;54.60
29775;DHT22;16676;51.202;6.774;2022-09-17T00:07:17;20.80;55.50
29775;DHT22;16676;51.202;6.774;2022-09-17T00:11:21;20.80;54.10
29775;DHT22;16676;51.202;6.774;2022-09-17T00:15:25;20.80;55.20
29775;DHT22;16676;51.202;6.774;2022-09-17T00:19:27;20.80;55.30
29775;DHT22;16676;51.202;6.774;2022-09-17T00:23:29;20.70;55.00
29775;DHT22;16676;51.202;6.774;2022-09-17T00:27:31;20.70;54.40
29775;DHT22;16676;51.202;6.774;2022-09-17T00:31:36;20.80;55.20
29775;DHT22;16676;51.202;6.774;2022-09-17T00:35:38;20.80;55.00
29775;DHT22;16676;51.202;6.774;2022-09-17T00:39:40;20.70;55.30
29775;DHT22;16676;51.202;6.774;2022-09-17T00:43:43;20.80;54.20
29775;DHT22;16676;51.202;6.774;2022-09-17T00:47:52;20.70;54.60
29775;DHT22;16676;51.202;6.774;2022-09-17T00:51:58;20.80;54.00
29775;DHT22;16676;51.202;6.774;2022-09-17T00:56:05;20.70;55.30
29775;DHT22;16676;51.202;6.774;2022-09-17T01:00:12;20.70;55.10
29775;DHT22;16676;51.202;6.774;2022-09-17T01:04:17;20.70;55.90
29775;DHT22;16676;51.202;6.774;2022-09-17T01:08:26;20.70;55.10
29775;DHT22;16676;51.202;6.774;2022-09-17T01:12:38;20.70;54.60
29775;DHT22;16676;51.202;6.774;2022-09-17T01:16:49;20.70;55.00
29775;DHT22;16676;51.202;6.774;2022-09-17T01:25:47;20.70;55.70
29775;DHT22;16676;51.202;6.774;2022-09-17T01:30:03;20.70;55.40
29775;DHT22;16676;51.202;6.774;2022-09-17T01:34:19;20.70;54.80
29775;DHT22;16676;51.202;6.774;2022-09-17T01:38:26;20.70;55.50
29775;DHT22;16676;51.202;6.774;2022-09-17T01:42:36;20.70;56.10
29775;DHT22;16676;51.202;6.774;2022-09-17T01:46:45;20.70;55.40
29775;DHT22;16676;51.202;6.774;2022-09-17T01:50:54;20.60;55.60
29775;DHT22;16676;51.202;6.774;2022-09-17T01:54:59;20.60;55.00
29775;DHT22;16676;51.202;6.774;2022-09-17T01:59:08;20.60;54.70
29775;DHT22;16676;51.202;6.774;2022-09-17T02:03:12;20.60;54.40
29775;DHT22;16676;51.202;6.774;2022-09-17T02:07:18;20.60;54.40
29775;DHT22;16676;51.202;6.774;2022-09-17T02:11:21;20.60;56.50
29775;DHT22;16676;51.202;6.774;2022-09-17T02:15:25;20.60;54.80
29775;DHT22;16676;51.202;6.774;2022-09-17T02:19:30;20.70;55.50
29775;DHT22;16676;51.202;6.774;2022-09-17T02:23:38;20.60;55.40
29775;DHT22;16676;51.202;6.774;2022-09-17T02:27:50;20.60;55.20
29775;DHT22;16676;51.202;6.774;2022-09-17T02:31:53;20.60;55.10
29775;DHT22;16676;51.202;6.774;2022-09-17T02:35:55;20.60;56.00
29775;DHT22;16676;51.202;6.774;2022-09-17T02:39:58;20.60;55.50
29775;DHT22;16676;51.202;6.774;2022-09-17T02:44:09;20.60;54.60
29775;DHT22;16676;51.202;6.774;2022-09-17T02:48:23;20.60;55.00
29775;DHT22;16676;51.202;6.774;2022-09-17T02:52:40;20.60;56.20
29775;DHT22;16676;51.202;6.774;2022-09-17T02:56:50;20.60;56.30
29775;DHT22;16676;51.202;6.774;2022-09-17T03:00:58;20.60;55.80
29775;DHT22;16676;51.202;6.774;2022-09-17T03:05:02;20.60;54.60
29775;DHT22;16676;51.202;6.774;2022-09-17T03:09:05;20.60;56.30
29775;DHT22;16676;51.202;6.774;2022-09-17T03:13:08;20.50;55.60
29775;DHT22;16676;51.202;6.774;2022-09-17T03:17:10;20.50;55.60
29775;DHT22;16676;51.202;6.774;2022-09-17T03:21:14;20.50;56.00
29775;DHT22;16676;51.202;6.774;2022-09-17T03:25:16;20.50;55.40
29775;DHT22;16676;51.202;6.774;2022-09-17T03:29:19;20.50;55.60
29775;DHT22;16676;51.202;6.774;2022-09-17T03:33:22;20.50;54.70
29775;DHT22;16676;51.202;6.774;2022-09-17T03:37:24;20.50;55.10
29775;DHT22;16676;51.202;6.774;2022-09-17T03:41:26;20.50;55.80
29775;DHT22;16676;51.202;6.774;2022-09-17T03:45:29;20.50;55.90
29775;DHT22;16676;51.202;6.774;2022-09-17T03:49:31;20.50;54.70
29775;DHT22;16676;51.202;6.774;2022-09-17T03:53:33;20.50;55.80
29775;DHT22;16676;51.202;6.774;2022-09-17T03:57:35;20.50;56.10
29775;DHT22;16676;51.202;6.774;2022-09-17T04:01:39;20.50;56.00
29775;DHT22;16676;51.202;6.774;2022-09-17T04:05:41;20.50;55.60
29775;DHT22;16676;51.202;6.774;2022-09-17T04:09:43;20.50;56.30
29775;DHT22;16676;51.202;6.774;2022-09-17T04:13:45;20.50;55.50
29775;DHT22;16676;51.202;6.774;2022-09-17T04:17:48;20.50;55.60
29775;DHT22;16676;51.202;6.774;2022-09-17T04:21:50;20.40;56.20
29775;DHT22;16676;51.202;6.774;2022-09-17T04:25:52;20.50;55.90
29775;DHT22;16676;51.202;6.774;2022-09-17T04:29:54;20.50;56.10
29775;DHT22;16676;51.202;6.774;2022-09-17T04:33:58;20.40;56.30
29775;DHT22;16676;51.202;6.774;2022-09-17T04:38:00;20.40;56.20
29775;DHT22;16676;51.202;6.774;2022-09-17T04:42:02;20.40;56.00
29775;DHT22;16676;51.202;6.774;2022-09-17T04:46:04;20.50;56.70
29775;DHT22;16676;51.202;6.774;2022-09-17T04:50:08;20.40;56.00
29775;DHT22;16676;51.202;6.774;2022-09-17T04:54:10;20.50;56.20
29775;DHT22;16676;51.202;6.774;2022-09-17T04:58:12;20.50;54.80
29775;DHT22;16676;51.202;6.774;2022-09-17T05:02:14;20.40;56.20
29775;DHT22;16676;51.202;6.774;2022-09-17T05:06:17;20.40;55.00
29775;DHT22;16676;51.202;6.774;2022-09-17T05:10:21;20.40;54.90
29775;DHT22;16676;51.202;6.774;2022-09-17T05:14:23;20.40;56.50
29775;DHT22;16676;51.202;6.774;2022-09-17T05:18:25;20.40;55.90
29775;DHT22;16676;51.202;6.774;2022-09-17T05:22:28;20.40;55.90
29775;DHT22;16676;51.202;6.774;2022-09-17T05:26:30;20.40;55.30
29775;DHT22;16676;51.202;6.774;2022-09-17T05:30:32;20.40;55.20
29775;DHT22;16676;51.202;6.774;2022-09-17T05:34:34;20.50;55.90
29775;DHT22;16676;51.202;6.774;2022-09-17T05:38:37;20.40;56.20
29775;DHT22;16676;51.202;6.774;2022-09-17T05:42:39;20.40;56.20
29775;DHT22;16676;51.202;6.774;2022-09-17T05:46:41;20.40;56.60
29775;DHT22;16676;51.202;6.774;2022-09-17T05:50:44;20.30;56.40
29775;DHT22;16676;51.202;6.774;2022-09-17T05:54:48;20.40;55.80
29775;DHT22;16676;51.202;6.774;2022-09-17T05:58:54;20.30;56.00
29775;DHT22;16676;51.202;6.774;2022-09-17T06:02:56;20.30;55.90
29775;DHT22;16676;51.202;6.774;2022-09-17T06:06:58;20.30;55.30
29775;DHT22;16676;51.202;6.774;2022-09-17T06:11:04;20.30;56.30
29775;DHT22;16676;51.202;6.774;2022-09-17T06:15:07;20.20;55.00
29775;DHT22;16676;51.202;6.774;2022-09-17T06:19:09;20.20;56.20
29775;DHT22;16676;51.202;6.774;2022-09-17T06:23:11;20.20;55.80
29775;DHT22;16676;51.202;6.774;2022-09-17T06:27:14;20.20;56.20
29775;DHT22;16676;51.202;6.774;2022-09-17T06:31:16;20.20;56.10
29775;DHT22;16676;51.202;6.774;2022-09-17T06:35:18;20.20;56.70
29775;DHT22;16676;51.202;6.774;2022-09-17T06:39:20;20.20;56.00
29775;DHT22;16676;51.202;6.774;2022-09-17T06:43:23;20.10;55.40
29775;DHT22;16676;51.202;6.774;2022-09-17T06:47:25;20.10;55.30
29775;DHT22;16676;51.202;6.774;2022-09-17T06:51:28;20.10;56.00
29775;DHT22;16676;51.202;6.774;2022-09-17T06:55:30;20.20;56.50
29775;DHT22;16676;51.202;6.774;2022-09-17T06:59:33;20.20;55.80
29775;DHT22;16676;51.202;6.774;2022-09-17T07:03:35;20.20;54.70
29775;DHT22;16676;51.202;6.774;2022-09-17T07:07:37;20.20;54.20
29775;DHT22;16676;51.202;6.774;2022-09-17T07:11:40;20.20;54.40
29775;DHT22;16676;51.202;6.774;2022-09-17T07:15:51;20.20;54.70
29775;DHT22;16676;51.202;6.774;2022-09-17T07:19:53;20.20;54.40
29775;DHT22;16676;51.202;6.774;2022-09-17T07:23:55;20.20;53.30
29775;DHT22;16676;51.202;6.774;2022-09-17T07:27:57;20.20;53.50
29775;DHT22;16676;51.202;6.774;2022-09-17T07:32:01;20.30;52.60
29775;DHT22;16676;51.202;6.774;2022-09-17T07:36:04;20.30;52.70
29775;DHT22;16676;51.202;6.774;2022-09-17T07:40:07;20.40;51.90
29775;DHT22;16676;51.202;6.774;2022-09-17T07:44:09;20.30;51.60
29775;DHT22;16676;51.202;6.774;2022-09-17T07:48:13;20.40;52.30
29775;DHT22;16676;51.202;6.774;2022-09-17T07:52:15;20.40;51.90
29775;DHT22;16676;51.202;6.774;2022-09-17T07:56:17;20.40;51.10
29775;DHT22;16676;51.202;6.774;2022-09-17T08:00:19;20.40;51.20
29775;DHT22;16676;51.202;6.774;2022-09-17T08:04:22;20.30;51.40
29775;DHT22;16676;51.202;6.774;2022-09-17T08:08:24;20.30;51.30
29775;DHT22;16676;51.202;6.774;2022-09-17T08:12:26;20.20;52.20
29775;DHT22;16676;51.202;6.774;2022-09-17T08:16:29;20.20;52.20
29775;DHT22;16676;51.202;6.774;2022-09-17T08:20:32;20.20;51.60
29775;DHT22;16676;51.202;6.774;2022-09-17T08:24:34;20.20;51.80
29775;DHT22;16676;51.202;6.774;2022-09-17T08:28:36;20.10;51.30
29775;DHT22;16676;51.202;6.774;2022-09-17T08:32:38;20.10;50.60
29775;DHT22;16676;51.202;6.774;2022-09-17T08:36:42;20.10;51.40
29775;DHT22;16676;51.202;6.774;2022-09-17T08:40:55;20.10;51.00
29775;DHT22;16676;51.202;6.774;2022-09-17T08:45:03;20.10;51.80
29775;DHT22;16676;51.202;6.774;2022-09-17T08:49:10;20.10;51.40
29775;DHT22;16676;51.202;6.774;2022-09-17T08:53:26;20.20;51.10
29775;DHT22;16676;51.202;6.774;2022-09-17T08:57:40;20.10;50.50
29775;DHT22;16676;51.202;6.774;2022-09-17T09:01:50;20.10;50.20
29775;DHT22;16676;51.202;6.774;2022-09-17T09:05:57;20.10;50.10
29775;DHT22;16676;51.202;6.774;2022-09-17T09:10:11;20.20;49.70
29775;DHT22;16676;51.202;6.774;2022-09-17T09:14:19;20.00;49.10
29775;DHT22;16676;51.202;6.774;2022-09-17T09:18:24;19.80;49.10
29775;DHT22;16676;51.202;6.774;2022-09-17T09:22:42;19.70;49.50
29775;DHT22;16676;51.202;6.774;2022-09-17T09:26:53;19.70;49.90
29775;DHT22;16676;51.202;6.774;2022-09-17T09:31:08;19.70;49.90
29775;DHT22;16676;51.202;6.774;2022-09-17T09:35:18;19.70;49.80
29775;DHT22;16676;51.202;6.774;2022-09-17T09:39:23;19.50;49.60
29775;DHT22;16676;51.202;6.774;2022-09-17T09:43:35;19.30;49.60
29775;DHT22;16676;51.202;6.774;2022-09-17T09:47:49;19.20;50.00
29775;DHT22;16676;51.202;6.774;2022-09-17T09:52:05;19.30;49.80
29775;DHT22;16676;51.202;6.774;2022-09-17T09:56:32;19.30;49.40
29775;DHT22;16676;51.202;6.774;2022-09-17T10:00:39;19.40;49.60
29775;DHT22;16676;51.202;6.774;2022-09-17T10:04:42;19.70;49.00
29775;DHT22;16676;51.202;6.774;2022-09-17T10:09:09;19.60;48.30
29775;DHT22;16676;51.202;6.774;2022-09-17T10:13:11;19.50;47.50
29775;DHT22;16676;51.202;6.774;2022-09-17T10:17:23;19.30;48.50
29775;DHT22;16676;51.202;6.774;2022-09-17T10:21:30;19.50;48.70
29775;DHT22;16676;51.202;6.774;2022-09-17T10:25:33;19.50;48.60
29775;DHT22;16676;51.202;6.774;2022-09-17T10:29:36;19.60;50.00
29775;DHT22;16676;51.202;6.774;2022-09-17T10:33:50;19.50;49.60
29775;DHT22;16676;51.202;6.774;2022-09-17T10:37:53;19.10;50.40
29775;DHT22;16676;51.202;6.774;2022-09-17T10:41:56;19.00;52.00
29775;DHT22;16676;51.202;6.774;2022-09-17T10:45:59;19.10;51.90
29775;DHT22;16676;51.202;6.774;2022-09-17T10:50:06;19.10;52.00
29775;DHT22;16676;51.202;6.774;2022-09-17T10:58:55;19.10;51.50
29775;DHT22;16676;51.202;6.774;2022-09-17T11:03:23;19.30;51.20
29775;DHT22;16676;51.202;6.774;2022-09-17T11:07:33;19.20;51.00
29775;DHT22;16676;51.202;6.774;2022-09-17T11:11:49;19.30;50.80
29775;DHT22;16676;51.202;6.774;2022-09-17T11:16:06;19.20;50.00
29775;DHT22;16676;51.202;6.774;2022-09-17T11:20:24;19.10;50.70
29775;DHT22;16676;51.202;6.774;2022-09-17T11:24:57;18.80;50.30
29775;DHT22;16676;51.202;6.774;2022-09-17T11:29:19;18.90;51.90
29775;DHT22;16676;51.202;6.774;2022-09-17T11:33:43;18.90;51.30
29775;DHT22;16676;51.202;6.774;2022-09-17T11:37:51;18.70;51.20
29775;DHT22;16676;51.202;6.774;2022-09-17T11:41:59;18.80;52.10
29775;DHT22;16676;51.202;6.774;2022-09-17T11:46:07;19.10;50.80
29775;DHT22;16676;51.202;6.774;2022-09-17T11:50:18;19.40;50.60
29775;DHT22;16676;51.202;6.774;2022-09-17T11:54:24;19.60;50.90
29775;DHT22;16676;51.202;6.774;2022-09-17T11:58:35;19.70;51.00
29775;DHT22;16676;51.202;6.774;2022-09-17T12:02:45;19.80;51.10
29775;DHT22;16676;51.202;6.774;2022-09-17T12:06:56;19.90;50.80
29775;DHT22;16676;51.202;6.774;2022-09-17T12:11:06;20.00;50.70
29775;DHT22;16676;51.202;6.774;2022-09-17T12:15:17;20.00;50.80
29775;DHT22;16676;51.202;6.774;2022-09-17T12:19:24;20.00;50.70
29775;DHT22;16676;51.202;6.774;2022-09-17T12:23:35;20.00;50.70
29775;DHT22;16676;51.202;6.774;2022-09-17T12:27:44;20.10;50.40
29775;DHT22;16676;51.202;6.774;2022-09-17T12:31:51;20.10;49.90
29775;DHT22;16676;51.202;6.774;2022-09-17T12:40:46;20.00;49.80
29775;DHT22;16676;51.202;6.774;2022-09-17T12:45:04;19.90;49.70
29775;DHT22;16676;51.202;6.774;2022-09-17T12:49:33;19.90;50.00
29775;DHT22;16676;51.202;6.774;2022-09-17T12:53:42;20.00;50.20
29775;DHT22;16676;51.202;6.774;2022-09-17T12:57:49;20.10;50.10
29775;DHT22;16676;51.202;6.774;2022-09-17T13:01:59;20.20;50.10
29775;DHT22;16676;51.202;6.774;2022-09-17T13:11:00;20.20;50.30
29775;DHT22;16676;51.202;6.774;2022-09-17T13:15:32;20.20;50.60
29775;DHT22;16676;51.202;6.774;2022-09-17T13:19:41;20.30;50.60
29775;DHT22;16676;51.202;6.774;2022-09-17T13:23:47;20.40;50.50
29775;DHT22;16676;51.202;6.774;2022-09-17T13:28:03;20.40;50.60
29775;DHT22;16676;51.202;6.774;2022-09-17T13:32:06;20.40;50.60
29775;DHT22;16676;51.202;6.774;2022-09-17T13:36:38;20.40;50.80
29775;DHT22;16676;51.202;6.774;2022-09-17T13:40:41;20.50;50.80
29775;DHT22;16676;51.202;6.774;2022-09-17T13:44:48;20.50;50.80
29775;DHT22;16676;51.202;6.774;2022-09-17T13:48:55;20.40;51.10
29775;DHT22;16676;51.202;6.774;2022-09-17T13:52:59;20.50;51.60
29775;DHT22;16676;51.202;6.774;2022-09-17T13:57:12;20.50;51.30
29775;DHT22;16676;51.202;6.774;2022-09-17T14:05:58;20.50;51.60
29775;DHT22;16676;51.202;6.774;2022-09-17T14:10:35;20.50;51.80
29775;DHT22;16676;51.202;6.774;2022-09-17T14:14:48;20.60;51.30
29775;DHT22;16676;51.202;6.774;2022-09-17T14:18:56;20.60;51.00
29775;DHT22;16676;51.202;6.774;2022-09-17T14:22:59;20.50;50.60
29775;DHT22;16676;51.202;6.774;2022-09-17T14:27:13;20.50;50.50
29775;DHT22;16676;51.202;6.774;2022-09-17T14:31:18;20.60;50.70
29775;DHT22;16676;51.202;6.774;2022-09-17T14:35:27;20.50;50.60
29775;DHT22;16676;51.202;6.774;2022-09-17T14:39:36;20.50;50.50
29775;DHT22;16676;51.202;6.774;2022-09-17T14:43:44;20.50;51.20
29775;DHT22;16676;51.202;6.774;2022-09-17T14:47:47;20.50;50.70
29775;DHT22;16676;51.202;6.774;2022-09-17T14:51:49;20.50;50.80
29775;DHT22;16676;51.202;6.774;2022-09-17T14:55:51;20.60;50.90
29775;DHT22;16676;51.202;6.774;2022-09-17T14:59:55;20.60;50.90
29775;DHT22;16676;51.202;6.774;2022-09-17T15:04:19;20.60;50.80
29775;DHT22;16676;51.202;6.774;2022-09-17T15:08:24;20.60;50.80
29775;DHT22;16676;51.202;6.774;2022-09-17T15:12:28;20.60;51.20
29775;DHT22;16676;51.202;6.774;2022-09-17T15:16:32;20.60;50.50
29775;DHT22;16676;51.202;6.774;2022-09-17T15:20:36;20.70;50.50
29775;DHT22;16676;51.202;6.774;2022-09-17T15:24:41;20.70;50.60
29775;DHT22;16676;51.202;6.774;2022-09-17T15:28:44;20.70;50.50
29775;DHT22;16676;51.202;6.774;2022-09-17T15:32:50;20.70;50.50
29775;DHT22;16676;51.202;6.774;2022-09-17T15:37:15;20.60;50.50
29775;DHT22;16676;51.202;6.774;2022-09-17T15:41:31;20.70;50.50
29775;DHT22;16676;51.202;6.774;2022-09-17T15:45:33;20.70;50.30
29775;DHT22;16676;51.202;6.774;2022-09-17T15:49:40;20.70;50.30
29775;DHT22;16676;51.202;6.774;2022-09-17T15:53:50;20.70;50.20
29775;DHT22;16676;51.202;6.774;2022-09-17T15:57:53;20.70;50.00
29775;DHT22;16676;51.202;6.774;2022-09-17T16:01:56;20.70;50.20
29775;DHT22;16676;51.202;6.774;2022-09-17T16:06:00;20.70;50.10
29775;DHT22;16676;51.202;6.774;2022-09-17T16:10:02;20.70;50.30
29775;DHT22;16676;51.202;6.774;2022-09-17T16:14:04;20.70;50.00
29775;DHT22;16676;51.202;6.774;2022-09-17T16:18:11;20.70;49.80
29775;DHT22;16676;51.202;6.774;2022-09-17T16:22:15;20.70;49.90
29775;DHT22;16676;51.202;6.774;2022-09-17T16:26:19;20.70;49.90
29775;DHT22;16676;51.202;6.774;2022-09-17T16:30:22;20.80;50.00
29775;DHT22;16676;51.202;6.774;2022-09-17T16:34:25;20.80;50.00
29775;DHT22;16676;51.202;6.774;2022-09-17T16:38:28;20.80;49.40
29775;DHT22;16676;51.202;6.774;2022-09-17T16:42:30;20.80;49.20
29775;DHT22;16676;51.202;6.774;2022-09-17T16:46:32;20.80;49.70
29775;DHT22;16676;51.202;6.774;2022-09-17T16:50:37;20.80;48.90
29775;DHT22;16676;51.202;6.774;2022-09-17T16:54:42;20.70;48.30
29775;DHT22;16676;51.202;6.774;2022-09-17T16:58:44;20.70;48.80
29775;DHT22;16676;51.202;6.774;2022-09-17T17:02:52;20.60;48.60
29775;DHT22;16676;51.202;6.774;2022-09-17T17:06:54;20.60;49.00
29775;DHT22;16676;51.202;6.774;2022-09-17T17:10:57;20.60;48.90
29775;DHT22;16676;51.202;6.774;2022-09-17T17:14:59;20.60;49.00
29775;DHT22;16676;51.202;6.774;2022-09-17T17:19:02;20.60;49.00
29775;DHT22;16676;51.202;6.774;2022-09-17T17:23:04;20.60;49.60
29775;DHT22;16676;51.202;6.774;2022-09-17T17:27:07;20.60;48.80
29775;DHT22;16676;51.202;6.774;2022-09-17T17:31:09;20.60;48.90
29775;DHT22;16676;51.202;6.774;2022-09-17T17:35:12;20.60;49.10
29775;DHT22;16676;51.202;6.774;2022-09-17T17:39:14;20.60;49.20
29775;DHT22;16676;51.202;6.774;2022-09-17T17:43:17;20.60;49.00
29775;DHT22;16676;51.202;6.774;2022-09-17T17:47:19;20.60;49.40
29775;DHT22;16676;51.202;6.774;2022-09-17T17:51:21;20.60;49.30
29775;DHT22;16676;51.202;6.774;2022-09-17T17:55:23;20.60;49.40
29775;DHT22;16676;51.202;6.774;2022-09-17T17:59:27;20.60;49.60
29775;DHT22;16676;51.202;6.774;2022-09-17T18:03:29;20.60;50.00
29775;DHT22;16676;51.202;6.774;2022-09-17T18:07:31;20.60;50.30
29775;DHT22;16676;51.202;6.774;2022-09-17T18:11:34;20.60;50.30
29775;DHT22;16676;51.202;6.774;2022-09-17T18:15:37;20.60;50.60
29775;DHT22;16676;51.202;6.774;2022-09-17T18:19:39;20.60;50.70
29775;DHT22;16676;51.202;6.774;2022-09-17T18:23:42;20.60;50.90
29775;DHT22;16676;51.202;6.774;2022-09-17T18:27:44;20.60;51.00
29775;DHT22;16676;51.202;6.774;2022-09-17T18:31:47;20.60;50.90
29775;DHT22;16676;51.202;6.774;2022-09-17T18:35:49;20.60;50.90
29775;DHT22;16676;51.202;6.774;2022-09-17T18:39:53;20.60;50.80
29775;DHT22;16676;51.202;6.774;2022-09-17T18:43:55;20.60;50.80
29775;DHT22;16676;51.202;6.774;2022-09-17T18:47:58;20.60;50.80
29775;DHT22;16676;51.202;6.774;2022-09-17T18:52:00;20.60;50.80
29775;DHT22;16676;51.202;6.774;2022-09-17T18:56:05;20.60;50.70
29775;DHT22;16676;51.202;6.774;2022-09-17T19:00:08;20.60;51.20
29775;DHT22;16676;51.202;6.774;2022-09-17T19:04:12;20.60;50.60
29775;DHT22;16676;51.202;6.774;2022-09-17T19:08:14;20.60;50.70
29775;DHT22;16676;51.202;6.774;2022-09-17T19:12:16;20.60;50.80
29775;DHT22;16676;51.202;6.774;2022-09-17T19:16:18;20.60;50.80
29775;DHT22;16676;51.202;6.774;2022-09-17T19:20:21;20.50;50.70
29775;DHT22;16676;51.202;6.774;2022-09-17T19:24:24;20.50;50.80
29775;DHT22;16676;51.202;6.774;2022-09-17T19:28:26;20.50;50.70
29775;DHT22;16676;51.202;6.774;2022-09-17T19:32:28;20.50;50.50
29775;DHT22;16676;51.202;6.774;2022-09-17T19:36:32;20.50;50.30
29775;DHT22;16676;51.202;6.774;2022-09-17T19:40:34;20.50;50.00
29775;DHT22;16676;51.202;6.774;2022-09-17T19:44:36;20.50;49.90
29775;DHT22;16676;51.202;6.774;2022-09-17T19:48:42;20.40;49.70
29775;DHT22;16676;51.202;6.774;2022-09-17T19:52:46;20.50;49.70
29775;DHT22;16676;51.202;6.774;2022-09-17T19:56:47;20.40;49.40
29775;DHT22;16676;51.202;6.774;2022-09-17T20:00:53;20.40;49.50
29775;DHT22;16676;51.202;6.774;2022-09-17T20:04:56;20.40;49.50
29775;DHT22;16676;51.202;6.774;2022-09-17T20:09:00;20.40;49.40
29775;DHT22;16676;51.202;6.774;2022-09-17T20:13:02;20.40;49.40
29775;DHT22;16676;51.202;6.774;2022-09-17T20:17:04;20.40;49.60
29775;DHT22;16676;51.202;6.774;2022-09-17T20:21:07;20.30;49.80
29775;DHT22;16676;51.202;6.774;2022-09-17T20:25:10;20.40;50.10
29775;DHT22;16676;51.202;6.774;2022-09-17T20:29:12;20.30;50.10
29775;DHT22;16676;51.202;6.774;2022-09-17T20:33:14;20.40;50.50
29775;DHT22;16676;51.202;6.774;2022-09-17T20:37:16;20.50;50.60
29775;DHT22;16676;51.202;6.774;2022-09-17T20:41:20;20.50;50.70
29775;DHT22;16676;51.202;6.774;2022-09-17T20:45:22;20.50;51.00
29775;DHT22;16676;51.202;6.774;2022-09-17T20:49:24;20.50;51.00
29775;DHT22;16676;51.202;6.774;2022-09-17T20:53:27;20.50;51.20
29775;DHT22;16676;51.202;6.774;2022-09-17T20:57:31;20.50;51.20
29775;DHT22;16676;51.202;6.774;2022-09-17T21:01:33;20.50;51.30
29775;DHT22;16676;51.202;6.774;2022-09-17T21:05:36;20.50;51.30
29775;DHT22;16676;51.202;6.774;2022-09-17T21:09:38;20.50;51.40
29775;DHT22;16676;51.202;6.774;2022-09-17T21:13:43;20.50;51.40
29775;DHT22;16676;51.202;6.774;2022-09-17T21:17:45;20.60;51.60
29775;DHT22;16676;51.202;6.774;2022-09-17T21:21:47;20.50;51.70
29775;DHT22;16676;51.202;6.774;2022-09-17T21:25:51;20.50;51.80
29775;DHT22;16676;51.202;6.774;2022-09-17T21:29:55;20.50;51.80
29775;DHT22;16676;51.202;6.774;2022-09-17T21:33:58;20.50;52.00
29775;DHT22;16676;51.202;6.774;2022-09-17T21:38:00;20.60;52.00
29775;DHT22;16676;51.202;6.774;2022-09-17T21:42:04;20.50;51.90
29775;DHT22;16676;51.202;6.774;2022-09-17T21:46:08;20.50;52.00
29775;DHT22;16676;51.202;6.774;2022-09-17T21:50:10;20.60;52.10
29775;DHT22;16676;51.202;6.774;2022-09-17T21:54:14;20.50;52.10
29775;DHT22;16676;51.202;6.774;2022-09-17T21:58:16;20.50;52.20
29775;DHT22;16676;51.202;6.774;2022-09-17T22:02:19;20.60;52.50
29775;DHT22;16676;51.202;6.774;2022-09-17T22:06:23;20.50;52.20
29775;DHT22;16676;51.202;6.774;2022-09-17T22:10:26;20.60;52.30
29775;DHT22;16676;51.202;6.774;2022-09-17T22:14:28;20.50;52.30
29775;DHT22;16676;51.202;6.774;2022-09-17T22:18:33;20.60;52.40
29775;DHT22;16676;51.202;6.774;2022-09-17T22:22:35;20.50;52.40
29775;DHT22;16676;51.202;6.774;2022-09-17T22:26:40;20.50;52.40
29775;DHT22;16676;51.202;6.774;2022-09-17T22:30:43;20.60;52.40
29775;DHT22;16676;51.202;6.774;2022-09-17T22:34:46;20.50;52.50
29775;DHT22;16676;51.202;6.774;2022-09-17T22:38:51;20.50;52.60
29775;DHT22;16676;51.202;6.774;2022-09-17T22:42:53;20.50;52.70
29775;DHT22;16676;51.202;6.774;2022-09-17T22:46:55;20.50;52.60
29775;DHT22;16676;51.202;6.774;2022-09-17T22:50:59;20.50;52.60
29775;DHT22;16676;51.202;6.774;2022-09-17T22:55:01;20.50;52.60
29775;DHT22;16676;51.202;6.774;2022-09-17T22:59:03;20.50;52.70
29775;DHT22;16676;51.202;6.774;2022-09-17T23:03:05;20.50;52.70
29775;DHT22;16676;51.202;6.774;2022-09-17T23:07:08;20.50;52.70
29775;DHT22;16676;51.202;6.774;2022-09-17T23:11:16;20.50;52.70
29775;DHT22;16676;51.202;6.774;2022-09-17T23:15:18;20.50;52.80
29775;DHT22;16676;51.202;6.774;2022-09-17T23:19:26;20.50;52.80
29775;DHT22;16676;51.202;6.774;2022-09-17T23:23:30;20.50;52.90
29775;DHT22;16676;51.202;6.774;2022-09-17T23:27:32;20.50;52.90
29775;DHT22;16676;51.202;6.774;2022-09-17T23:31:34;20.50;52.80
29775;DHT22;16676;51.202;6.774;2022-09-17T23:35:36;20.50;52.80
29775;DHT22;16676;51.202;6.774;2022-09-17T23:39:39;20.50;52.80
29775;DHT22;16676;51.202;6.774;2022-09-17T23:43:42;20.50;52.90
29775;DHT22;16676;51.202;6.774;2022-09-17T23:47:45;20.50;53.00
29775;DHT22;16676;51.202;6.774;2022-09-17T23:51:47;20.50;53.00
29775;DHT22;16676;51.202;6.774;2022-09-17T23:55:51;20.40;53.00
29775;DHT22;16676;51.202;6.774;2022-09-17T23:59:53;20.50;53.10
